createdAt,value
2018-07-14T00:00:57.009Z,4.53
2018-07-14T00:03:33.197Z,4.03
2018-07-14T00:06:09.447Z,3.80
2018-07-14T00:08:45.431Z,3.25
2018-07-14T00:11:21.517Z,2.90
2018-07-14T00:13:57.789Z,2.72
2018-07-14T00:16:33.760Z,2.87
2018-07-14T00:19:09.760Z,2.83
2018-07-14T00:21:46.087Z,2.25
2018-07-14T00:24:22.431Z,2.60
2018-07-14T00:26:58.661Z,2.50
2018-07-14T00:29:41.099Z,2.65
2018-07-14T00:32:17.371Z,2.60
2018-07-14T00:34:53.690Z,2.33
2018-07-14T00:37:29.831Z,2.58
2018-07-14T00:40:06.159Z,2.70
2018-07-14T00:42:42.280Z,2.20
2018-07-14T00:45:18.487Z,2.92
2018-07-14T00:47:54.649Z,2.70
2018-07-14T00:50:30.413Z,3.77
2018-07-14T00:53:06.371Z,2.70
2018-07-14T00:55:42.576Z,2.87
2018-07-14T00:58:18.709Z,2.62
2018-07-14T01:00:54.817Z,2.50
2018-07-14T01:03:30.890Z,2.98
2018-07-14T01:06:06.977Z,2.05
2018-07-14T01:08:42.929Z,2.85
2018-07-14T01:11:19.140Z,2.50
2018-07-14T01:13:55.217Z,2.58
2018-07-14T01:16:31.536Z,2.70
2018-07-14T01:19:07.681Z,2.62
2018-07-14T01:21:43.712Z,2.47
2018-07-14T01:24:19.809Z,2.58
2018-07-14T01:26:56.000Z,3.35
2018-07-14T01:29:31.919Z,2.42
2018-07-14T01:32:08.328Z,2.45
2018-07-14T01:34:44.573Z,2.35
2018-07-14T01:37:20.990Z,2.50
2018-07-14T01:39:56.960Z,2.52
2018-07-14T01:42:33.147Z,2.50
2018-07-14T01:45:09.220Z,2.50
2018-07-14T01:47:45.440Z,2.60
2018-07-14T01:50:21.681Z,2.60
2018-07-14T01:52:57.827Z,2.10
2018-07-14T01:55:33.846Z,2.15
2018-07-14T01:58:09.986Z,2.40
2018-07-14T02:00:46.001Z,2.35
2018-07-14T02:03:23.147Z,2.50
2018-07-14T02:06:06.096Z,2.65
2018-07-14T02:08:42.119Z,2.85
2018-07-14T02:11:18.360Z,2.80
2018-07-14T02:13:54.330Z,2.90
2018-07-14T02:16:30.499Z,2.35
2018-07-14T02:19:06.683Z,2.37
2018-07-14T02:21:42.755Z,2.70
2018-07-14T02:24:18.814Z,2.22
2018-07-14T02:26:55.140Z,2.55
2018-07-14T02:29:30.956Z,2.20
2018-07-14T02:32:07.368Z,2.50
2018-07-14T02:34:43.336Z,2.42
2018-07-14T02:37:19.500Z,2.55
2018-07-14T02:39:55.508Z,2.40
2018-07-14T02:42:31.697Z,3.15
2018-07-14T02:45:08.035Z,2.17
2018-07-14T02:47:43.930Z,2.58
2018-07-14T02:50:19.710Z,2.62
2018-07-14T02:52:55.664Z,2.40
2018-07-14T02:55:32.090Z,2.75
2018-07-14T02:58:08.290Z,2.12
2018-07-14T03:00:44.652Z,1.92
2018-07-14T03:03:20.814Z,2.50
2018-07-14T03:05:56.781Z,2.67
2018-07-14T03:08:33.050Z,2.47
2018-07-14T03:11:09.238Z,3.52
2018-07-14T03:13:45.567Z,2.20
2018-07-14T03:16:21.752Z,2.70
2018-07-14T03:18:57.919Z,2.30
2018-07-14T03:21:34.082Z,2.58
2018-07-14T03:24:10.011Z,2.50
2018-07-14T03:26:46.350Z,2.50
2018-07-14T03:29:22.408Z,2.40
2018-07-14T03:31:58.360Z,2.52
2018-07-14T03:34:34.680Z,2.72
2018-07-14T03:37:10.734Z,2.60
2018-07-14T03:39:46.799Z,2.37
2018-07-14T03:42:22.929Z,2.30
2018-07-14T03:44:59.240Z,2.37
2018-07-14T03:47:35.507Z,1.90
2018-07-14T03:50:11.470Z,2.60
2018-07-14T03:52:47.542Z,2.15
2018-07-14T03:55:23.730Z,2.70
2018-07-14T03:57:59.787Z,2.80
2018-07-14T04:00:35.800Z,2.55
2018-07-14T04:03:11.990Z,2.70
2018-07-14T04:05:48.297Z,2.25
2018-07-14T04:08:24.347Z,2.47
2018-07-14T04:11:00.330Z,2.65
2018-07-14T04:13:36.550Z,2.97
2018-07-14T04:16:12.720Z,2.33
2018-07-14T04:18:48.721Z,2.20
2018-07-14T04:21:24.757Z,1.95
2018-07-14T04:24:01.021Z,2.30
2018-07-14T04:26:37.027Z,2.45
2018-07-14T04:29:12.933Z,2.55
2018-07-14T04:31:49.045Z,2.43
2018-07-14T04:34:24.825Z,2.30
2018-07-14T04:37:00.761Z,2.00
2018-07-14T04:39:36.755Z,2.05
2018-07-14T04:42:12.770Z,2.40
2018-07-14T04:44:48.646Z,2.02
2018-07-14T04:47:24.791Z,2.75
2018-07-14T04:50:00.750Z,1.97
2018-07-14T04:52:36.942Z,1.70
2018-07-14T04:55:12.934Z,2.70
2018-07-14T04:57:48.906Z,2.30
2018-07-14T05:00:25.259Z,2.05
2018-07-14T05:03:01.319Z,2.20
2018-07-14T05:05:37.293Z,1.77
2018-07-14T05:08:13.336Z,1.60
2018-07-14T05:10:49.530Z,2.58
2018-07-14T05:13:25.350Z,2.15
2018-07-14T05:16:01.179Z,2.10
2018-07-14T05:18:37.178Z,2.25
2018-07-14T05:21:13.174Z,2.10
2018-07-14T05:23:49.409Z,2.20
2018-07-14T05:26:25.473Z,1.92
2018-07-14T05:29:01.607Z,1.80
2018-07-14T05:31:37.634Z,2.10
2018-07-14T05:34:13.797Z,1.80
2018-07-14T05:36:49.699Z,1.80
2018-07-14T05:39:25.709Z,1.00
2018-07-14T05:42:02.679Z,1.10
2018-07-14T05:44:39.207Z,1.20
2018-07-14T05:47:15.163Z,1.05
2018-07-14T05:49:51.339Z,0.88
2018-07-14T05:52:27.547Z,1.07
2018-07-14T05:55:03.778Z,1.10
2018-07-14T05:57:39.960Z,1.00
2018-07-14T06:00:15.946Z,1.07
2018-07-14T06:02:52.012Z,1.00
2018-07-14T06:05:28.065Z,1.03
2018-07-14T06:08:04.058Z,1.03
2018-07-14T06:10:40.031Z,1.00
2018-07-14T06:13:16.346Z,0.90
2018-07-14T06:15:52.309Z,1.30
2018-07-14T06:18:28.173Z,0.97
2018-07-14T06:21:04.452Z,1.03
2018-07-14T06:23:40.618Z,0.90
2018-07-14T06:26:16.668Z,1.00
2018-07-14T06:28:52.926Z,0.83
2018-07-14T06:31:29.051Z,1.00
2018-07-14T06:34:05.559Z,2.13
2018-07-14T06:36:41.769Z,1.00
2018-07-14T06:39:17.559Z,1.53
2018-07-14T06:41:53.614Z,0.93
2018-07-14T06:44:29.556Z,1.10
2018-07-14T06:47:05.969Z,0.87
2018-07-14T06:49:42.220Z,0.80
2018-07-14T06:52:18.329Z,1.00
2018-07-14T06:54:57.387Z,1.00
2018-07-14T06:57:33.506Z,1.10
2018-07-14T07:00:09.377Z,1.23
2018-07-14T07:02:45.729Z,1.30
2018-07-14T07:05:21.945Z,0.80
2018-07-14T07:07:57.986Z,1.10
2018-07-14T07:10:33.926Z,1.03
2018-07-14T07:13:09.901Z,0.90
2018-07-14T07:15:52.011Z,0.73
2018-07-14T07:18:27.961Z,0.80
2018-07-14T07:21:04.238Z,0.60
2018-07-14T07:23:40.188Z,0.80
2018-07-14T07:26:16.256Z,0.60
2018-07-14T07:28:52.789Z,0.80
2018-07-14T07:31:28.925Z,0.70
2018-07-14T07:34:05.393Z,0.80
2018-07-14T07:36:41.468Z,0.70
2018-07-14T07:39:17.585Z,0.73
2018-07-14T07:41:52.867Z,0.80
2018-07-14T07:44:28.746Z,0.90
2018-07-14T07:47:04.558Z,1.00
2018-07-14T07:49:40.589Z,0.70
2018-07-14T07:52:15.869Z,0.70
2018-07-14T07:54:51.815Z,0.93
2018-07-14T07:57:27.868Z,0.73
2018-07-14T08:00:03.868Z,0.70
2018-07-14T08:02:39.834Z,0.93
2018-07-14T08:05:15.775Z,0.93
2018-07-14T08:07:52.006Z,0.80
2018-07-14T08:10:28.204Z,0.90
2018-07-14T08:13:04.325Z,1.00
2018-07-14T08:15:40.167Z,0.80
2018-07-14T08:18:16.026Z,1.00
2018-07-14T08:20:51.963Z,0.80
2018-07-14T08:23:27.938Z,0.80
2018-07-14T08:26:04.001Z,0.80
2018-07-14T08:28:40.109Z,1.00
2018-07-14T08:31:15.928Z,0.63
2018-07-14T08:33:52.149Z,0.87
2018-07-14T08:36:28.030Z,0.80
2018-07-14T08:39:04.911Z,1.00
2018-07-14T08:41:41.178Z,1.03
2018-07-14T08:44:16.998Z,0.93
2018-07-14T08:46:52.904Z,0.90
2018-07-14T08:49:29.179Z,0.87
2018-07-14T08:52:05.444Z,0.87
2018-07-14T08:54:41.596Z,0.97
2018-07-14T08:57:17.251Z,1.13
2018-07-14T08:59:53.101Z,0.93
2018-07-14T09:02:28.906Z,1.10
2018-07-14T09:05:05.131Z,1.00
2018-07-14T09:07:41.305Z,1.30
2018-07-14T09:10:17.238Z,0.83
2018-07-14T09:12:53.438Z,0.80
2018-07-14T09:15:29.553Z,1.00
2018-07-14T09:18:05.685Z,0.93
2018-07-14T09:20:41.708Z,0.90
2018-07-14T09:23:18.058Z,1.03
2018-07-14T09:25:54.090Z,0.93
2018-07-14T09:28:30.106Z,0.80
2018-07-14T09:31:06.384Z,0.70
2018-07-14T09:33:42.276Z,1.00
2018-07-14T09:36:18.354Z,1.00
2018-07-14T09:38:54.239Z,0.93
2018-07-14T09:41:30.343Z,0.80
2018-07-14T09:44:06.290Z,0.90
2018-07-14T09:46:42.324Z,1.00
2018-07-14T09:49:18.220Z,0.70
2018-07-14T09:51:54.346Z,1.07
2018-07-14T09:54:30.218Z,1.00
2018-07-14T09:57:06.326Z,1.00
2018-07-14T09:59:42.366Z,0.70
2018-07-14T10:02:18.488Z,1.10
2018-07-14T10:04:54.425Z,0.80
2018-07-14T10:07:30.427Z,0.90
2018-07-14T10:10:06.849Z,0.90
2018-07-14T10:12:42.882Z,1.20
2018-07-14T10:15:19.076Z,0.60
2018-07-14T10:17:55.109Z,0.67
2018-07-14T10:20:31.055Z,0.70
2018-07-14T10:23:07.026Z,0.67
2018-07-14T10:25:43.173Z,0.70
2018-07-14T10:28:19.205Z,0.73
2018-07-14T10:30:55.098Z,0.87
2018-07-14T10:33:31.216Z,1.00
2018-07-14T10:36:07.198Z,0.63
2018-07-14T10:38:43.420Z,0.80
2018-07-14T10:41:19.522Z,0.70
2018-07-14T10:43:55.535Z,0.70
2018-07-14T10:46:31.458Z,0.70
2018-07-14T10:49:07.546Z,1.00
2018-07-14T10:51:43.430Z,0.73
2018-07-14T10:54:19.425Z,0.90
2018-07-14T10:56:55.368Z,0.80
2018-07-14T10:59:31.635Z,0.90
2018-07-14T11:02:08.068Z,0.60
2018-07-14T11:04:43.988Z,0.90
2018-07-14T11:07:20.039Z,1.20
2018-07-14T11:09:55.847Z,0.80
2018-07-14T11:12:31.572Z,0.80
2018-07-14T11:15:07.474Z,0.90
2018-07-14T11:17:43.392Z,0.70
2018-07-14T11:20:19.415Z,0.90
2018-07-14T11:22:55.291Z,0.70
2018-07-14T11:25:31.573Z,1.00
2018-07-14T11:28:07.685Z,1.23
2018-07-14T11:30:43.795Z,1.20
2018-07-14T11:33:19.483Z,0.77
2018-07-14T11:35:55.219Z,0.80
2018-07-14T11:38:31.622Z,1.03
2018-07-14T11:41:07.557Z,0.90
2018-07-14T11:43:43.719Z,0.80
2018-07-14T11:46:19.596Z,0.70
2018-07-14T11:48:55.155Z,1.10
2018-07-14T11:51:31.068Z,0.80
2018-07-14T11:54:06.964Z,0.90
2018-07-14T11:56:43.009Z,0.97
2018-07-14T11:59:19.029Z,0.90
2018-07-14T12:01:55.033Z,0.90
2018-07-14T12:04:30.825Z,0.83
2018-07-14T12:07:06.939Z,0.90
2018-07-14T12:09:43.034Z,0.90
2018-07-14T12:12:19.187Z,0.70
2018-07-14T12:14:55.315Z,0.83
2018-07-14T12:17:31.444Z,0.80
2018-07-14T12:20:07.350Z,0.80
2018-07-14T12:22:43.312Z,1.00
2018-07-14T12:25:19.503Z,1.20
2018-07-14T12:27:55.648Z,0.90
2018-07-14T12:30:31.657Z,0.83
2018-07-14T12:33:07.708Z,1.37
2018-07-14T12:35:43.927Z,1.03
2018-07-14T12:38:20.165Z,0.70
2018-07-14T12:40:55.971Z,1.20
2018-07-14T12:43:31.774Z,0.73
2018-07-14T12:46:07.886Z,1.10
2018-07-14T12:48:44.075Z,0.80
2018-07-14T12:51:19.952Z,0.80
2018-07-14T12:53:56.118Z,0.90
2018-07-14T12:56:31.976Z,0.80
2018-07-14T12:59:08.014Z,20.47
2018-07-14T13:01:43.980Z,0.93
2018-07-14T13:04:20.230Z,0.80
2018-07-14T13:06:56.466Z,0.80
2018-07-14T13:09:32.269Z,0.60
2018-07-14T13:12:08.669Z,0.80
2018-07-14T13:14:44.493Z,0.97
2018-07-14T13:17:20.490Z,0.80
2018-07-14T13:19:56.656Z,1.00
2018-07-14T13:22:33.046Z,0.93
2018-07-14T13:25:08.869Z,1.20
2018-07-14T13:27:45.050Z,0.80
2018-07-14T13:30:21.051Z,3.60
2018-07-14T13:32:57.164Z,3.30
2018-07-14T13:35:33.063Z,4.70
2018-07-14T13:38:08.992Z,4.90
2018-07-14T13:40:45.074Z,1.37
2018-07-14T13:43:21.187Z,1.70
2018-07-14T13:45:57.172Z,0.77
2018-07-14T13:48:33.079Z,0.90
2018-07-14T13:51:09.073Z,0.90
2018-07-14T13:53:45.438Z,0.90
2018-07-14T13:56:21.546Z,1.10
2018-07-14T13:58:57.589Z,0.80
2018-07-14T14:01:33.626Z,0.87
2018-07-14T14:04:09.573Z,0.70
2018-07-14T14:06:45.691Z,0.80
2018-07-14T14:09:21.574Z,1.10
2018-07-14T14:11:57.785Z,1.30
2018-07-14T14:14:33.998Z,0.70
2018-07-14T14:17:09.923Z,0.90
2018-07-14T14:19:45.986Z,3.23
2018-07-14T14:22:21.971Z,1.60
2018-07-14T14:24:57.923Z,1.03
2018-07-14T14:27:33.973Z,1.47
2018-07-14T14:30:10.169Z,1.40
2018-07-14T14:32:46.329Z,1.57
2018-07-14T14:35:22.266Z,1.10
2018-07-14T14:37:58.208Z,1.00
2018-07-14T14:40:34.007Z,0.93
2018-07-14T14:43:09.816Z,0.73
2018-07-14T14:45:45.842Z,0.80
2018-07-14T14:48:21.866Z,0.90
2018-07-14T14:50:57.868Z,0.90
2018-07-14T14:53:33.727Z,0.80
2018-07-14T14:56:09.812Z,1.00
2018-07-14T14:58:45.783Z,1.03
2018-07-14T15:01:21.866Z,1.17
2018-07-14T15:03:57.778Z,0.90
2018-07-14T15:06:33.819Z,1.07
2018-07-14T15:09:09.740Z,0.93
2018-07-14T15:11:44.972Z,1.00
2018-07-14T15:14:20.887Z,0.70
2018-07-14T15:16:57.019Z,0.80
2018-07-14T15:19:33.094Z,0.93
2018-07-14T15:22:09.247Z,1.03
2018-07-14T15:24:45.445Z,0.83
2018-07-14T15:27:21.499Z,1.20
2018-07-14T15:29:57.342Z,0.83
2018-07-14T15:32:33.284Z,0.97
2018-07-14T15:35:09.262Z,0.90
2018-07-14T15:37:45.896Z,0.90
2018-07-14T15:40:21.951Z,1.00
2018-07-14T15:42:57.910Z,0.90
2018-07-14T15:45:34.208Z,1.10
2018-07-14T15:48:09.736Z,1.00
2018-07-14T15:50:45.605Z,1.00
2018-07-14T15:53:21.841Z,1.10
2018-07-14T15:55:57.739Z,1.07
2018-07-14T15:58:33.605Z,1.37
2018-07-14T16:01:09.726Z,0.83
2018-07-14T16:03:45.958Z,1.00
2018-07-14T16:06:22.047Z,0.90
2018-07-14T16:08:57.855Z,1.00
2018-07-14T16:11:33.868Z,1.00
2018-07-14T16:14:09.956Z,1.07
2018-07-14T16:16:45.770Z,1.73
2018-07-14T16:19:21.639Z,1.17
2018-07-14T16:21:57.904Z,1.10
2018-07-14T16:24:33.795Z,1.00
2018-07-14T16:27:09.889Z,1.10
2018-07-14T16:29:46.015Z,1.30
2018-07-14T16:32:22.015Z,1.10
2018-07-14T16:34:58.043Z,1.40
2018-07-14T16:37:34.009Z,1.07
2018-07-14T16:40:10.059Z,1.20
2018-07-14T16:42:46.018Z,0.90
2018-07-14T16:45:22.137Z,1.30
2018-07-14T16:47:58.246Z,1.30
2018-07-14T16:50:34.110Z,1.30
2018-07-14T16:53:10.126Z,1.37
2018-07-14T16:55:46.572Z,1.10
2018-07-14T16:58:22.866Z,1.10
2018-07-14T17:00:58.952Z,1.00
2018-07-14T17:03:35.039Z,1.60
2018-07-14T17:06:11.219Z,1.13
2018-07-14T17:08:47.180Z,1.30
2018-07-14T17:11:22.804Z,1.43
2018-07-14T17:13:59.235Z,1.40
2018-07-14T17:16:35.269Z,1.37
2018-07-14T17:19:11.317Z,1.60
2018-07-14T17:21:47.248Z,1.30
2018-07-14T17:24:23.569Z,1.60
2018-07-14T17:26:59.617Z,1.40
2018-07-14T17:29:35.669Z,1.27
2018-07-14T17:32:11.825Z,1.70
2018-07-14T17:34:47.679Z,1.67
2018-07-14T17:37:23.822Z,1.63
2018-07-14T17:39:59.767Z,1.40
2018-07-14T17:42:35.803Z,1.80
2018-07-14T17:45:11.806Z,1.60
2018-07-14T17:47:48.028Z,2.20
2018-07-14T17:50:24.263Z,1.67
2018-07-14T17:53:00.376Z,1.73
2018-07-14T17:55:36.647Z,2.00
2018-07-14T17:58:13.053Z,1.90
2018-07-14T18:00:49.405Z,1.57
2018-07-14T18:03:25.569Z,1.80
2018-07-14T18:06:01.775Z,1.67
2018-07-14T18:08:37.968Z,1.90
2018-07-14T18:11:14.099Z,2.00
2018-07-14T18:13:50.018Z,1.80
2018-07-14T18:16:26.266Z,2.33
2018-07-14T18:19:01.822Z,2.00
2018-07-14T18:21:37.976Z,2.10
2018-07-14T18:24:14.042Z,1.90
2018-07-14T18:26:49.878Z,1.60
2018-07-14T18:29:25.913Z,1.70
2018-07-14T18:32:01.954Z,1.87
2018-07-14T18:34:37.942Z,2.00
2018-07-14T18:37:13.812Z,1.93
2018-07-14T18:39:49.829Z,1.80
2018-07-14T18:42:25.955Z,1.80
2018-07-14T18:45:01.986Z,2.27
2018-07-14T18:47:38.259Z,1.90
2018-07-14T18:50:14.188Z,1.93
2018-07-14T18:52:50.296Z,2.00
2018-07-14T18:55:25.828Z,1.87
2018-07-14T18:58:02.018Z,2.10
2018-07-14T19:00:38.370Z,2.10
2018-07-14T19:03:14.321Z,2.60
2018-07-14T19:05:50.508Z,2.77
2018-07-14T19:08:26.620Z,2.20
2018-07-14T19:11:02.579Z,2.08
2018-07-14T19:13:38.594Z,2.30
2018-07-14T19:16:14.715Z,2.80
2018-07-14T19:18:50.633Z,2.27
2018-07-14T19:21:27.226Z,2.33
2018-07-14T19:24:03.318Z,2.73
2018-07-14T19:26:39.646Z,2.65
2018-07-14T19:29:15.499Z,2.87
2018-07-14T19:31:51.626Z,2.80
2018-07-14T19:34:27.586Z,2.77
2018-07-14T19:37:03.821Z,2.80
2018-07-14T19:39:39.957Z,2.62
2018-07-14T19:42:15.866Z,2.90
2018-07-14T19:44:51.957Z,2.60
2018-07-14T19:47:27.885Z,2.10
2018-07-14T19:50:04.035Z,2.72
2018-07-14T19:52:39.923Z,2.70
2018-07-14T19:55:15.830Z,3.15
2018-07-14T19:57:52.077Z,3.00
2018-07-14T20:00:28.211Z,2.92
2018-07-14T20:03:04.220Z,2.45
2018-07-14T20:05:39.979Z,3.37
2018-07-14T20:08:15.981Z,2.98
2018-07-14T20:10:51.758Z,3.10
2018-07-14T20:13:27.778Z,3.20
2018-07-14T20:16:03.780Z,3.02
2018-07-14T20:18:40.422Z,2.70
2018-07-14T20:21:16.465Z,3.15
2018-07-14T20:23:52.176Z,2.92
2018-07-14T20:26:28.148Z,2.95
2018-07-14T20:29:04.147Z,2.83
2018-07-14T20:31:40.108Z,2.92
2018-07-14T20:34:16.099Z,3.15
2018-07-14T20:36:52.006Z,2.90
2018-07-14T20:39:27.717Z,3.05
2018-07-14T20:42:03.898Z,3.30
2018-07-14T20:44:40.293Z,2.80
2018-07-14T20:47:16.534Z,3.30
2018-07-14T20:49:52.600Z,3.22
2018-07-14T20:52:28.715Z,3.27
2018-07-14T20:55:04.736Z,2.75
2018-07-14T20:57:40.833Z,3.80
2018-07-14T21:00:16.832Z,3.52
2018-07-14T21:02:52.965Z,3.60
2018-07-14T21:05:29.095Z,3.83
2018-07-14T21:08:05.336Z,3.67
2018-07-14T21:10:41.186Z,3.98
2018-07-14T21:13:17.432Z,3.27
2018-07-14T21:15:53.656Z,3.72
2018-07-14T21:18:29.566Z,3.90
2018-07-14T21:21:05.529Z,3.45
2018-07-14T21:23:41.839Z,3.35
2018-07-14T21:26:17.604Z,3.87
2018-07-14T21:28:53.545Z,3.62
2018-07-14T21:31:29.298Z,3.50
2018-07-14T21:34:05.465Z,3.80
2018-07-14T21:36:40.928Z,3.60
2018-07-14T21:39:17.045Z,4.10
2018-07-14T21:41:52.929Z,2.98
2018-07-14T21:44:28.989Z,4.03
2018-07-14T21:47:05.110Z,3.77
2018-07-14T21:49:41.427Z,3.60
2018-07-14T21:52:17.378Z,4.42
2018-07-14T21:54:53.258Z,4.37
2018-07-14T21:57:29.200Z,3.70
2018-07-14T22:00:06.092Z,4.28
2018-07-14T22:02:42.134Z,4.00
2018-07-14T22:05:18.266Z,3.90
2018-07-14T22:07:54.749Z,4.00
2018-07-14T22:10:31.067Z,4.72
2018-07-14T22:13:07.035Z,4.20
2018-07-14T22:15:43.194Z,4.90
2018-07-14T22:18:19.409Z,4.28
2018-07-14T22:20:55.510Z,4.80
2018-07-14T22:23:31.826Z,4.33
2018-07-14T22:26:07.969Z,4.25
2018-07-14T22:28:43.938Z,4.97
2018-07-14T22:31:20.009Z,4.62
2018-07-14T22:33:56.129Z,4.42
2018-07-14T22:36:31.684Z,5.00
2018-07-14T22:39:08.158Z,4.50
2018-07-14T22:41:48.666Z,5.00
2018-07-14T22:44:24.578Z,5.00
2018-07-14T22:47:00.740Z,4.40
2018-07-14T22:49:37.100Z,4.10
2018-07-14T22:52:12.527Z,4.40
2018-07-14T22:54:48.689Z,5.25
2018-07-14T22:57:24.731Z,3.55
2018-07-14T23:00:00.780Z,4.60
2018-07-14T23:02:36.956Z,4.22
2018-07-14T23:05:12.950Z,4.78
2018-07-14T23:07:49.019Z,4.17
2018-07-14T23:10:25.259Z,4.25
2018-07-14T23:13:01.529Z,3.83
2018-07-14T23:15:37.379Z,5.12
2018-07-14T23:18:13.239Z,5.28
2018-07-14T23:20:49.400Z,5.08
2018-07-14T23:23:25.529Z,4.67
2018-07-14T23:26:01.636Z,5.47
2018-07-14T23:28:37.576Z,5.30
2018-07-14T23:31:13.680Z,5.55
2018-07-14T23:33:49.861Z,4.70
2018-07-14T23:36:25.906Z,5.15
2018-07-14T23:39:02.057Z,6.60
2018-07-14T23:41:38.942Z,5.60
2018-07-14T23:44:15.050Z,5.62
2018-07-14T23:46:51.069Z,5.20
2018-07-14T23:49:27.316Z,4.87
2018-07-14T23:52:03.649Z,5.40
2018-07-14T23:54:39.659Z,6.12
2018-07-14T23:57:15.768Z,4.87
2018-07-14T23:59:52.019Z,5.28
